createdAt,value
2018-09-27T00:00:30.165Z,83.00
2018-09-27T00:01:30.193Z,83.09
2018-09-27T00:02:30.223Z,82.81
2018-09-27T00:03:30.265Z,82.42
2018-09-27T00:04:30.274Z,83.57
2018-09-27T00:05:30.303Z,83.57
2018-09-27T00:06:30.334Z,83.86
2018-09-27T00:07:30.357Z,83.18
2018-09-27T00:08:30.382Z,84.14
2018-09-27T00:09:30.410Z,83.81
2018-09-27T00:10:30.435Z,83.47
2018-09-27T00:11:30.464Z,83.62
2018-09-27T00:12:30.489Z,83.34
2018-09-27T00:13:30.516Z,83.86
2018-09-27T00:14:30.543Z,84.00
2018-09-27T00:15:30.574Z,84.20
2018-09-27T00:16:30.596Z,84.14
2018-09-27T00:17:30.625Z,84.00
2018-09-27T00:18:30.650Z,84.67
2018-09-27T00:19:30.715Z,84.58
2018-09-27T00:20:30.704Z,84.39
2018-09-27T00:21:30.730Z,84.67
2018-09-27T00:22:30.760Z,84.77
2018-09-27T00:23:30.785Z,84.96
2018-09-27T00:24:30.813Z,84.86
2018-09-27T00:25:30.838Z,85.15
2018-09-27T00:26:30.868Z,85.34
2018-09-27T00:27:30.894Z,84.96
2018-09-27T00:28:30.920Z,85.25
2018-09-27T00:29:30.948Z,84.86
2018-09-27T00:30:30.972Z,85.53
2018-09-27T00:31:31.002Z,85.53
2018-09-27T00:33:31.053Z,85.82
2018-09-27T00:34:31.083Z,85.72
2018-09-27T00:35:31.107Z,85.82
2018-09-27T00:36:31.133Z,85.91
2018-09-27T00:37:31.160Z,85.82
2018-09-27T00:38:31.188Z,86.01
2018-09-27T00:39:31.216Z,85.53
2018-09-27T00:40:31.241Z,85.53
2018-09-27T00:41:31.267Z,85.91
2018-09-27T00:42:31.293Z,85.44
2018-09-27T00:43:31.321Z,85.82
2018-09-27T00:44:31.348Z,85.72
2018-09-27T00:45:31.375Z,85.72
2018-09-27T00:46:31.602Z,85.91
2018-09-27T00:47:31.427Z,85.91
2018-09-27T00:48:31.472Z,85.72
2018-09-27T00:49:31.481Z,85.91
2018-09-27T00:50:31.509Z,85.91
2018-09-27T00:51:31.538Z,86.30
2018-09-27T00:52:31.562Z,86.20
2018-09-27T00:53:31.588Z,86.30
2018-09-27T00:54:31.637Z,86.20
2018-09-27T00:55:31.641Z,86.10
2018-09-27T00:56:31.667Z,86.20
2018-09-27T00:57:31.694Z,86.49
2018-09-27T00:58:31.724Z,86.10
2018-09-27T00:59:31.755Z,86.20
2018-09-27T01:00:31.778Z,86.20
2018-09-27T01:01:31.801Z,86.58
2018-09-27T01:02:31.828Z,86.20
2018-09-27T01:03:31.855Z,85.91
2018-09-27T01:04:31.881Z,86.49
2018-09-27T01:05:31.910Z,86.30
2018-09-27T01:06:31.935Z,86.58
2018-09-27T01:07:31.982Z,86.20
2018-09-27T01:08:31.990Z,86.87
2018-09-27T01:09:32.015Z,86.87
2018-09-27T01:10:32.042Z,86.49
2018-09-27T01:11:32.071Z,86.58
2018-09-27T01:12:32.095Z,86.96
2018-09-27T01:13:32.121Z,87.15
2018-09-27T01:14:32.150Z,86.77
2018-09-27T01:15:32.179Z,86.96
2018-09-27T01:16:32.202Z,86.58
2018-09-27T01:17:32.228Z,86.96
2018-09-27T01:18:32.256Z,87.06
2018-09-27T01:19:32.282Z,86.49
2018-09-27T01:20:32.309Z,87.06
2018-09-27T01:21:32.338Z,87.25
2018-09-27T01:22:32.364Z,87.25
2018-09-27T01:23:32.389Z,87.44
2018-09-27T01:24:32.417Z,87.87
2018-09-27T01:25:32.441Z,87.63
2018-09-27T01:26:32.471Z,87.59
2018-09-27T01:27:32.500Z,87.63
2018-09-27T01:28:32.524Z,87.78
2018-09-27T01:29:32.900Z,87.73
2018-09-27T01:30:32.578Z,87.40
2018-09-27T01:31:32.620Z,87.49
2018-09-27T01:32:32.632Z,87.73
2018-09-27T01:33:32.656Z,87.78
2018-09-27T01:34:32.684Z,87.30
2018-09-27T01:35:32.709Z,87.30
2018-09-27T01:36:32.736Z,87.40
2018-09-27T01:37:32.765Z,87.44
2018-09-27T01:38:32.790Z,87.30
2018-09-27T01:39:32.818Z,87.30
2018-09-27T01:40:32.844Z,87.87
2018-09-27T01:41:32.869Z,87.49
2018-09-27T01:42:32.898Z,87.06
2018-09-27T01:43:32.927Z,87.97
2018-09-27T01:44:32.948Z,87.68
2018-09-27T01:45:32.976Z,87.49
2018-09-27T01:46:33.002Z,88.35
2018-09-27T01:47:33.029Z,87.63
2018-09-27T01:48:33.080Z,88.16
2018-09-27T01:49:33.082Z,87.78
2018-09-27T01:50:33.109Z,87.68
2018-09-27T01:51:33.136Z,87.97
2018-09-27T01:52:33.161Z,87.87
2018-09-27T01:53:33.190Z,88.45
2018-09-27T01:54:33.215Z,88.64
2018-09-27T01:55:33.242Z,88.45
2018-09-27T01:56:33.267Z,88.07
2018-09-27T01:57:33.297Z,88.64
2018-09-27T01:58:33.321Z,88.45
2018-09-27T01:59:33.350Z,88.07
2018-09-27T02:00:33.375Z,88.73
2018-09-27T02:01:33.401Z,88.64
2018-09-27T02:02:33.429Z,88.54
2018-09-27T02:03:33.454Z,88.35
2018-09-27T02:04:33.481Z,88.07
2018-09-27T02:05:33.508Z,88.45
2018-09-27T02:06:33.536Z,88.49
2018-09-27T02:07:33.561Z,88.07
2018-09-27T02:08:33.588Z,88.73
2018-09-27T02:09:33.615Z,88.64
2018-09-27T02:10:33.643Z,88.35
2018-09-27T02:11:33.670Z,88.01
2018-09-27T02:12:33.693Z,88.07
2018-09-27T02:13:33.719Z,88.64
2018-09-27T02:14:33.747Z,88.87
2018-09-27T02:15:33.773Z,87.92
2018-09-27T02:16:33.802Z,88.30
2018-09-27T02:17:33.827Z,87.92
2018-09-27T02:18:33.854Z,88.30
2018-09-27T02:19:33.885Z,87.63
2018-09-27T02:20:33.906Z,87.54
2018-09-27T02:21:33.933Z,87.54
2018-09-27T02:22:33.961Z,87.92
2018-09-27T02:23:33.989Z,87.15
2018-09-27T02:24:34.028Z,87.15
2018-09-27T02:25:34.041Z,87.73
2018-09-27T02:26:34.067Z,87.35
2018-09-27T02:27:34.093Z,87.54
2018-09-27T02:28:34.119Z,87.44
2018-09-27T02:29:34.148Z,87.35
2018-09-27T02:30:34.192Z,86.87
2018-09-27T02:31:34.201Z,86.96
2018-09-27T02:32:34.225Z,86.96
2018-09-27T02:33:34.253Z,86.58
2018-09-27T02:34:34.299Z,86.87
2018-09-27T02:35:34.308Z,86.87
2018-09-27T02:36:34.334Z,86.49
2018-09-27T02:37:34.360Z,86.30
2018-09-27T02:38:34.385Z,86.39
2018-09-27T02:39:34.413Z,86.68
2018-09-27T02:40:34.438Z,86.30
2018-09-27T02:41:34.466Z,86.01
2018-09-27T02:42:34.491Z,86.20
2018-09-27T02:43:34.518Z,86.30
2018-09-27T02:44:34.546Z,86.30
2018-09-27T02:45:34.572Z,86.39
2018-09-27T02:46:34.601Z,86.20
2018-09-27T02:47:34.628Z,85.72
2018-09-27T02:48:34.651Z,86.77
2018-09-27T02:49:34.679Z,86.39
2018-09-27T02:50:34.704Z,85.91
2018-09-27T02:51:34.734Z,85.91
2018-09-27T02:52:34.757Z,85.91
2018-09-27T02:53:34.786Z,85.72
2018-09-27T02:54:34.810Z,86.20
2018-09-27T02:55:34.841Z,86.01
2018-09-27T02:56:34.865Z,86.10
2018-09-27T02:57:34.890Z,86.20
2018-09-27T02:58:34.917Z,86.20
2018-09-27T02:59:34.945Z,85.82
2018-09-27T03:00:34.970Z,86.39
2018-09-27T03:01:34.998Z,86.39
2018-09-27T03:02:35.022Z,86.20
2018-09-27T03:03:35.052Z,86.30
2018-09-27T03:04:35.076Z,86.20
2018-09-27T03:05:35.105Z,86.20
2018-09-27T03:06:35.132Z,86.24
2018-09-27T03:07:35.159Z,86.30
2018-09-27T03:08:35.184Z,86.01
2018-09-27T03:09:35.209Z,86.24
2018-09-27T03:10:35.236Z,86.20
2018-09-27T03:11:35.263Z,86.30
2018-09-27T03:12:35.288Z,86.20
2018-09-27T03:13:35.316Z,86.20
2018-09-27T03:14:35.343Z,86.49
2018-09-27T03:15:35.373Z,86.30
2018-09-27T03:16:35.417Z,86.10
2018-09-27T03:17:35.424Z,86.30
2018-09-27T03:18:35.459Z,86.10
2018-09-27T03:19:35.476Z,86.01
2018-09-27T03:20:35.502Z,86.53
2018-09-27T03:21:35.530Z,86.20
2018-09-27T03:22:35.556Z,86.30
2018-09-27T03:23:35.585Z,86.34
2018-09-27T03:24:35.609Z,86.34
2018-09-27T03:25:35.655Z,86.43
2018-09-27T03:26:35.665Z,86.15
2018-09-27T03:27:35.690Z,86.24
2018-09-27T03:28:35.717Z,85.77
2018-09-27T03:29:35.743Z,86.05
2018-09-27T03:30:35.770Z,85.96
2018-09-27T03:31:35.797Z,86.05
2018-09-27T03:32:35.826Z,85.77
2018-09-27T03:33:35.856Z,85.58
2018-09-27T03:34:35.878Z,85.96
2018-09-27T03:35:35.904Z,85.86
2018-09-27T03:36:35.931Z,85.77
2018-09-27T03:37:35.958Z,85.96
2018-09-27T03:38:36.004Z,85.67
2018-09-27T03:39:36.031Z,85.77
2018-09-27T03:40:36.162Z,85.86
2018-09-27T03:41:36.079Z,85.58
2018-09-27T03:42:36.093Z,85.96
2018-09-27T03:43:36.125Z,86.15
2018-09-27T03:44:36.146Z,85.58
2018-09-27T03:45:36.188Z,85.67
2018-09-27T03:46:36.200Z,85.86
2018-09-27T03:47:36.227Z,86.05
2018-09-27T03:48:36.255Z,85.77
2018-09-27T03:49:36.282Z,85.86
2018-09-27T03:50:36.308Z,85.48
2018-09-27T03:51:36.335Z,85.67
2018-09-27T03:52:36.361Z,85.96
2018-09-27T03:53:36.388Z,85.77
2018-09-27T03:54:36.415Z,86.05
2018-09-27T03:55:36.443Z,85.96
2018-09-27T03:56:36.488Z,85.96
2018-09-27T03:57:36.498Z,85.38
2018-09-27T03:58:36.525Z,85.33
2018-09-27T03:59:36.551Z,85.58
2018-09-27T04:00:36.578Z,85.19
2018-09-27T04:01:36.604Z,85.48
2018-09-27T04:02:36.633Z,85.42
2018-09-27T04:03:36.662Z,85.19
2018-09-27T04:04:36.687Z,85.05
2018-09-27T04:05:36.713Z,84.95
2018-09-27T04:06:36.741Z,84.85
2018-09-27T04:07:36.768Z,84.95
2018-09-27T04:08:36.794Z,85.14
2018-09-27T04:09:36.821Z,84.95
2018-09-27T04:10:36.849Z,85.05
2018-09-27T04:11:36.890Z,84.76
2018-09-27T04:12:36.916Z,84.66
2018-09-27T04:13:36.929Z,84.66
2018-09-27T04:14:36.955Z,84.95
2018-09-27T04:15:36.985Z,84.66
2018-09-27T04:16:37.011Z,85.05
2018-09-27T04:17:37.036Z,85.24
2018-09-27T04:18:37.064Z,85.33
2018-09-27T04:19:37.090Z,84.95
2018-09-27T04:20:37.117Z,85.81
2018-09-27T04:21:37.149Z,85.52
2018-09-27T04:22:37.177Z,85.42
2018-09-27T04:23:37.198Z,85.33
2018-09-27T04:24:37.244Z,85.81
2018-09-27T04:25:37.254Z,85.52
2018-09-27T04:26:37.280Z,85.42
2018-09-27T04:27:37.372Z,86.00
2018-09-27T04:28:37.335Z,85.71
2018-09-27T04:29:37.364Z,85.81
2018-09-27T04:30:37.388Z,85.81
2018-09-27T04:31:37.415Z,85.71
2018-09-27T04:32:37.441Z,85.71
2018-09-27T04:33:37.518Z,85.90
2018-09-27T04:34:37.495Z,86.00
2018-09-27T04:35:37.543Z,86.10
2018-09-27T04:36:37.550Z,86.29
2018-09-27T04:37:37.578Z,86.67
2018-09-27T04:38:37.605Z,86.57
2018-09-27T04:39:37.669Z,86.47
2018-09-27T04:40:37.659Z,86.86
2018-09-27T04:41:37.706Z,87.15
2018-09-27T04:42:37.714Z,86.19
2018-09-27T04:43:37.743Z,87.15
2018-09-27T04:44:37.767Z,86.76
2018-09-27T04:45:37.836Z,87.05
2018-09-27T04:46:37.885Z,86.86
2018-09-27T04:47:37.849Z,87.34
2018-09-27T04:48:37.875Z,87.15
2018-09-27T04:49:37.906Z,87.58
2018-09-27T04:50:37.934Z,87.72
2018-09-27T04:51:37.993Z,87.53
2018-09-27T04:52:37.985Z,86.96
2018-09-27T04:53:38.011Z,86.86
2018-09-27T04:54:38.102Z,86.86
2018-09-27T04:55:38.067Z,87.20
2018-09-27T04:56:38.097Z,87.34
2018-09-27T04:57:38.119Z,86.72
2018-09-27T04:58:38.146Z,86.76
2018-09-27T04:59:38.173Z,87.53
2018-09-27T05:00:38.202Z,86.67
2018-09-27T05:01:38.227Z,86.86
2018-09-27T05:02:38.254Z,86.76
2018-09-27T05:03:38.327Z,86.86
2018-09-27T05:04:38.310Z,87.05
2018-09-27T05:05:38.337Z,87.34
2018-09-27T05:06:38.362Z,87.34
2018-09-27T05:07:38.409Z,86.29
2018-09-27T05:08:38.417Z,86.67
2018-09-27T05:09:38.500Z,86.38
2018-09-27T05:10:38.473Z,86.67
2018-09-27T05:11:38.499Z,86.10
2018-09-27T05:12:38.525Z,85.90
2018-09-27T05:13:38.554Z,85.90
2018-09-27T05:14:38.579Z,85.81
2018-09-27T05:15:38.671Z,85.90
2018-09-27T05:16:38.633Z,85.90
2018-09-27T05:17:38.662Z,85.71
2018-09-27T05:18:38.689Z,86.29
2018-09-27T05:19:38.716Z,85.62
2018-09-27T05:20:38.744Z,85.42
2018-09-27T05:21:38.829Z,85.81
2018-09-27T05:22:38.796Z,84.95
2018-09-27T05:23:38.824Z,85.81
2018-09-27T05:24:38.855Z,84.85
2018-09-27T05:25:38.880Z,85.71
2018-09-27T05:26:38.904Z,85.62
2018-09-27T05:27:38.994Z,85.14
2018-09-27T05:28:38.960Z,84.56
2018-09-27T05:29:38.985Z,84.95
2018-09-27T05:30:39.034Z,84.85
2018-09-27T05:31:39.040Z,84.95
2018-09-27T05:32:39.066Z,85.14
2018-09-27T05:33:39.184Z,84.76
2018-09-27T05:34:39.122Z,84.95
2018-09-27T05:35:39.153Z,84.28
2018-09-27T05:36:39.176Z,84.47
2018-09-27T05:37:39.203Z,85.05
2018-09-27T05:38:39.231Z,84.66
2018-09-27T05:39:39.336Z,84.47
2018-09-27T05:40:39.287Z,83.90
2018-09-27T05:41:39.313Z,84.09
2018-09-27T05:42:39.337Z,84.09
2018-09-27T05:43:39.367Z,84.09
2018-09-27T05:44:39.393Z,83.70
2018-09-27T05:45:39.491Z,83.80
2018-09-27T05:46:39.447Z,83.80
2018-09-27T05:47:39.476Z,83.80
2018-09-27T05:48:39.501Z,83.61
2018-09-27T05:49:39.529Z,83.33
2018-09-27T05:50:39.556Z,83.13
2018-09-27T05:51:39.702Z,83.42
2018-09-27T05:52:39.608Z,83.33
2018-09-27T05:53:39.637Z,83.61
2018-09-27T05:54:39.664Z,83.51
2018-09-27T05:55:39.692Z,83.80
2018-09-27T05:56:39.737Z,83.90
2018-09-27T05:57:39.750Z,83.13
2018-09-27T05:58:39.771Z,83.13
2018-09-27T05:59:39.798Z,83.13
2018-09-27T06:00:39.827Z,82.75
2018-09-27T06:01:39.861Z,82.94
2018-09-27T06:02:39.881Z,82.65
2018-09-27T06:03:39.971Z,82.28
2018-09-27T06:04:39.965Z,82.18
2018-09-27T06:05:39.960Z,82.28
2018-09-27T06:06:39.992Z,81.99
2018-09-27T06:07:40.017Z,82.08
2018-09-27T06:08:40.043Z,81.60
2018-09-27T06:09:40.162Z,81.79
2018-09-27T06:10:40.095Z,81.89
2018-09-27T06:11:40.130Z,81.13
2018-09-27T06:12:40.148Z,81.60
2018-09-27T06:13:40.178Z,81.60
2018-09-27T06:14:40.203Z,81.60
2018-09-27T06:15:40.309Z,81.13
2018-09-27T06:16:40.258Z,81.03
2018-09-27T06:17:40.286Z,81.32
2018-09-27T06:18:40.314Z,80.93
2018-09-27T06:19:40.439Z,81.13
2018-09-27T06:20:40.367Z,80.84
2018-09-27T06:21:40.486Z,80.84
2018-09-27T06:22:40.421Z,80.74
2018-09-27T06:23:40.446Z,80.74
2018-09-27T06:24:40.472Z,80.84
2018-09-27T06:25:40.516Z,81.22
2018-09-27T06:26:40.528Z,80.55
2018-09-27T06:27:40.626Z,80.36
2018-09-27T06:28:40.582Z,81.22
2018-09-27T06:29:40.610Z,80.46
2018-09-27T06:30:40.636Z,80.55
2018-09-27T06:31:40.662Z,80.36
2018-09-27T06:32:40.689Z,80.36
2018-09-27T06:33:40.808Z,79.93
2018-09-27T06:34:40.746Z,79.79
2018-09-27T06:35:40.770Z,79.69
2018-09-27T06:36:40.799Z,79.44
2018-09-27T06:37:40.824Z,79.64
2018-09-27T06:38:40.914Z,79.54
2018-09-27T06:39:40.885Z,79.35
2018-09-27T06:40:40.908Z,78.97
2018-09-27T06:41:40.936Z,79.35
2018-09-27T06:42:40.962Z,78.97
2018-09-27T06:43:40.987Z,78.49
2018-09-27T06:44:41.043Z,78.49
2018-09-27T06:45:41.043Z,78.78
2018-09-27T06:46:41.069Z,78.58
2018-09-27T06:47:41.098Z,78.97
2018-09-27T06:48:41.174Z,79.25
2018-09-27T06:49:41.153Z,79.16
2018-09-27T06:50:41.290Z,79.16
2018-09-27T06:51:41.204Z,79.44
2018-09-27T06:52:41.234Z,78.97
2018-09-27T06:53:41.261Z,78.87
2018-09-27T06:54:41.292Z,79.16
2018-09-27T06:55:41.485Z,78.68
2018-09-27T06:56:41.430Z,78.49
2018-09-27T06:57:41.372Z,78.01
2018-09-27T06:58:41.396Z,77.92
2018-09-27T06:59:41.425Z,77.25
2018-09-27T07:00:41.455Z,77.44
2018-09-27T07:01:41.478Z,77.28
2018-09-27T07:02:41.607Z,76.62
2018-09-27T07:03:41.583Z,76.14
2018-09-27T07:04:41.575Z,76.42
2018-09-27T07:05:41.587Z,76.23
2018-09-27T07:06:41.615Z,76.14
2018-09-27T07:07:41.641Z,76.23
2018-09-27T07:08:41.696Z,76.33
2018-09-27T07:09:41.702Z,76.04
2018-09-27T07:10:41.723Z,76.23
2018-09-27T07:11:41.757Z,75.66
2018-09-27T07:12:41.812Z,75.95
2018-09-27T07:13:41.805Z,75.66
2018-09-27T07:14:41.915Z,75.56
2018-09-27T07:15:41.914Z,76.04
2018-09-27T07:16:41.886Z,75.85
2018-09-27T07:17:41.914Z,76.04
2018-09-27T07:18:41.954Z,75.85
2018-09-27T07:19:41.970Z,75.76
2018-09-27T07:20:42.042Z,75.76
2018-09-27T07:21:42.026Z,74.99
2018-09-27T07:22:42.057Z,74.90
2018-09-27T07:23:42.080Z,74.36
2018-09-27T07:24:42.110Z,74.74
2018-09-27T07:25:42.135Z,74.93
2018-09-27T07:26:42.226Z,74.65
2018-09-27T07:27:42.190Z,74.55
2018-09-27T07:28:42.217Z,73.79
2018-09-27T07:29:42.241Z,73.59
2018-09-27T07:30:42.274Z,73.97
2018-09-27T07:31:42.297Z,73.59
2018-09-27T07:32:42.386Z,73.88
2018-09-27T07:33:42.353Z,73.91
2018-09-27T07:34:42.379Z,73.15
2018-09-27T07:35:42.408Z,72.23
2018-09-27T07:36:42.568Z,70.73
2018-09-27T07:37:42.461Z,68.21
2018-09-27T07:38:42.552Z,66.23
2018-09-27T07:39:42.519Z,64.09
2018-09-27T07:40:42.545Z,62.38
2018-09-27T07:41:42.573Z,62.26
2018-09-27T07:42:42.664Z,64.12
2018-09-27T07:43:42.631Z,65.97
2018-09-27T07:44:42.728Z,67.12
2018-09-27T07:45:42.686Z,68.52
2018-09-27T07:46:42.720Z,69.20
2018-09-27T07:47:42.745Z,68.46
2018-09-27T07:48:42.775Z,67.83
2018-09-27T07:49:42.802Z,65.69
2018-09-27T07:50:42.953Z,62.96
2018-09-27T07:51:42.861Z,60.78
2018-09-27T07:52:42.893Z,60.69
2018-09-27T07:53:42.920Z,60.24
2018-09-27T07:54:43.003Z,58.44
2018-09-27T07:55:42.980Z,57.67
2018-09-27T07:56:43.124Z,56.92
2018-09-27T07:57:43.043Z,56.73
2018-09-27T07:58:43.072Z,56.47
2018-09-27T07:59:43.103Z,55.60
2018-09-27T08:00:43.135Z,54.57
2018-09-27T08:01:43.165Z,53.51
2018-09-27T08:02:43.280Z,53.25
2018-09-27T08:03:43.271Z,52.19
2018-09-27T08:04:43.265Z,52.19
2018-09-27T08:05:43.296Z,52.86
2018-09-27T08:06:43.326Z,52.09
2018-09-27T08:07:43.359Z,52.73
2018-09-27T08:08:43.500Z,52.67
2018-09-27T08:09:43.426Z,52.93
2018-09-27T08:10:43.458Z,53.13
2018-09-27T08:11:43.523Z,52.21
2018-09-27T08:13:43.561Z,51.05
2018-09-27T08:14:43.620Z,50.67
2018-09-27T08:15:43.629Z,50.98
2018-09-27T08:16:43.732Z,50.11
2018-09-27T08:17:43.699Z,50.11
2018-09-27T08:18:43.740Z,50.50
2018-09-27T08:19:43.770Z,50.21
2018-09-27T08:20:44.049Z,49.85
2018-09-27T08:21:43.842Z,49.19
2018-09-27T08:22:43.873Z,47.94
2018-09-27T08:23:43.911Z,48.79
2018-09-27T08:24:43.948Z,49.24
2018-09-27T08:25:43.981Z,48.90
2018-09-27T08:26:44.037Z,48.13
2018-09-27T08:27:44.056Z,48.21
2018-09-27T08:28:44.092Z,48.79
2018-09-27T08:29:44.450Z,47.77
2018-09-27T08:36:36.826Z,45.95
2018-09-27T08:37:36.832Z,47.77
2018-09-27T08:38:36.918Z,47.65
2018-09-27T08:39:36.897Z,47.77
2018-09-27T08:48:52.979Z,46.22
2018-09-27T08:49:53.015Z,46.90
2018-09-27T08:50:53.375Z,46.70
2018-09-27T08:51:53.089Z,46.17
2018-09-27T08:52:53.129Z,46.22
2018-09-27T08:53:53.167Z,46.97
2018-09-27T08:54:53.204Z,47.07
2018-09-27T08:59:44.255Z,45.57
2018-09-27T09:00:44.312Z,45.01
2018-09-27T09:01:44.434Z,44.98
2018-09-27T09:02:44.366Z,44.87
2018-09-27T09:03:44.523Z,44.96
2018-09-27T09:04:44.444Z,45.45
2018-09-27T09:06:27.042Z,44.96
2018-09-27T09:07:27.086Z,44.70
2018-09-27T09:08:27.117Z,44.40
2018-09-27T09:09:27.211Z,43.99
2018-09-27T09:10:27.193Z,45.28
2018-09-27T09:11:27.232Z,44.87
2018-09-27T09:12:27.270Z,44.50
2018-09-27T09:13:27.342Z,44.77
2018-09-27T09:14:27.348Z,44.77
2018-09-27T09:15:27.431Z,44.60
2018-09-27T09:16:27.425Z,44.70
2018-09-27T09:17:27.462Z,44.12
2018-09-27T09:18:27.501Z,44.87
2018-09-27T09:19:27.569Z,44.21
2018-09-27T09:20:27.577Z,44.67
2018-09-27T09:21:27.661Z,44.70
2018-09-27T09:22:27.652Z,44.21
2018-09-27T09:23:27.690Z,44.53
2018-09-27T09:24:27.747Z,44.13
2018-09-27T09:25:27.810Z,43.85
2018-09-27T09:26:27.808Z,43.87
2018-09-27T09:27:27.903Z,43.19
2018-09-27T09:28:27.941Z,43.12
2018-09-27T09:29:27.955Z,42.61
2018-09-27T09:30:27.961Z,43.00
2018-09-27T09:31:27.999Z,42.90
2018-09-27T09:32:28.038Z,43.21
2018-09-27T09:33:28.112Z,42.75
2018-09-27T09:34:28.113Z,42.72
2018-09-27T09:35:28.208Z,42.72
2018-09-27T09:37:28.230Z,42.14
2018-09-27T09:38:28.270Z,41.64
2018-09-27T09:39:28.309Z,41.66
2018-09-27T09:40:28.346Z,41.16
2018-09-27T09:41:28.384Z,40.96
2018-09-27T09:43:46.081Z,40.38
2018-09-27T09:44:48.732Z,40.58
2018-09-27T09:45:46.142Z,40.50
2018-09-27T09:46:46.185Z,40.61
2018-09-27T09:47:46.219Z,39.65
2018-09-27T09:48:46.262Z,39.26
2018-09-27T09:49:46.296Z,39.74
2018-09-27T09:50:46.341Z,39.43
2018-09-27T09:51:46.376Z,39.34
2018-09-27T09:52:46.415Z,39.90
2018-09-27T09:53:46.453Z,40.31
2018-09-27T09:54:46.493Z,39.47
2018-09-27T09:55:46.531Z,38.12
2018-09-27T09:56:46.570Z,38.62
2018-09-27T09:57:46.609Z,38.25
2018-09-27T09:58:46.661Z,37.84
2018-09-27T09:59:46.684Z,37.71
2018-09-27T10:00:46.723Z,38.29
2018-09-27T10:01:46.768Z,39.06
2018-09-27T10:02:46.800Z,39.65
2018-09-27T10:03:46.838Z,38.89
2018-09-27T10:04:46.897Z,37.84
2018-09-27T10:05:46.934Z,37.71
2018-09-27T10:06:46.974Z,38.40
2018-09-27T10:07:47.316Z,37.73
2018-09-27T10:08:47.100Z,36.93
2018-09-27T10:09:47.073Z,37.32
2018-09-27T10:10:47.111Z,37.51
2018-09-27T10:12:47.187Z,37.41
2018-09-27T10:13:47.228Z,37.23
2018-09-27T10:14:47.692Z,37.71
2018-09-27T10:15:47.307Z,37.32
2018-09-27T10:16:47.670Z,37.13
2018-09-27T10:17:47.599Z,36.95
2018-09-27T10:18:47.422Z,38.42
2018-09-27T10:19:47.786Z,38.54
2018-09-27T10:20:47.514Z,38.46
2018-09-27T10:21:47.576Z,37.08
2018-09-27T10:22:47.600Z,37.08
2018-09-27T10:24:47.657Z,37.66
2018-09-27T10:25:47.711Z,37.39
2018-09-27T10:26:47.961Z,37.32
2018-09-27T10:27:47.789Z,36.34
2018-09-27T10:28:47.809Z,35.86
2018-09-27T10:29:47.848Z,35.84
2018-09-27T10:30:47.907Z,35.96
2018-09-27T10:31:47.949Z,35.96
2018-09-27T10:32:47.964Z,35.45
2018-09-27T10:33:48.004Z,36.11
2018-09-27T10:34:48.044Z,36.99
2018-09-27T10:35:48.084Z,36.15
2018-09-27T10:36:48.124Z,35.96
2018-09-27T10:37:48.162Z,36.15
2018-09-27T10:38:48.199Z,35.78
2018-09-27T10:39:48.239Z,35.35
2018-09-27T10:40:48.277Z,35.57
2018-09-27T10:41:50.937Z,36.15
2018-09-27T10:42:48.355Z,35.39
2018-09-27T10:43:48.394Z,34.43
2018-09-27T10:44:48.469Z,34.28
2018-09-27T10:45:51.701Z,34.95
2018-09-27T10:46:48.508Z,35.08
2018-09-27T10:47:48.546Z,34.90
2018-09-27T10:48:48.585Z,34.59
2018-09-27T10:49:48.626Z,35.33
2018-09-27T10:50:48.668Z,35.35
2018-09-27T10:51:48.706Z,35.16
2018-09-27T10:52:48.749Z,34.40
2018-09-27T10:53:48.793Z,34.11
2018-09-27T10:54:48.824Z,33.81
2018-09-27T10:55:48.861Z,34.32
2018-09-27T10:56:48.901Z,34.58
2018-09-27T10:57:48.942Z,35.10
2018-09-27T10:58:48.983Z,34.30
2018-09-27T10:59:49.019Z,33.83
2018-09-27T11:00:49.059Z,33.25
2018-09-27T11:01:49.100Z,33.75
2018-09-27T11:02:49.140Z,33.73
2018-09-27T11:03:49.177Z,33.25
2018-09-27T11:04:49.218Z,34.22
2018-09-27T11:05:49.584Z,32.89
2018-09-27T11:06:49.310Z,32.32
2018-09-27T11:07:49.334Z,31.46
2018-09-27T11:08:49.374Z,31.43
2018-09-27T11:09:49.414Z,31.63
2018-09-27T11:10:49.460Z,31.45
2018-09-27T11:11:49.492Z,30.35
2018-09-27T11:12:49.532Z,30.74
2018-09-27T11:13:49.573Z,32.02
2018-09-27T11:14:49.616Z,31.71
2018-09-27T11:15:49.650Z,32.13
2018-09-27T11:16:49.691Z,31.64
2018-09-27T11:17:49.730Z,31.43
2018-09-27T11:18:49.772Z,31.63
2018-09-27T11:19:49.809Z,31.90
2018-09-27T11:20:49.851Z,32.55
2018-09-27T11:21:49.893Z,32.76
2018-09-27T11:22:49.984Z,32.50
2018-09-27T11:23:49.969Z,32.52
2018-09-27T11:24:50.009Z,32.31
2018-09-27T11:25:50.050Z,32.23
2018-09-27T11:26:50.089Z,31.93
2018-09-27T11:27:50.144Z,31.93
2018-09-27T11:28:50.188Z,32.05
2018-09-27T11:29:50.208Z,31.66
2018-09-27T11:30:50.251Z,31.73
2018-09-27T11:31:50.286Z,31.73
2018-09-27T11:32:50.332Z,31.73
2018-09-27T11:33:50.366Z,31.61
2018-09-27T11:34:50.404Z,32.18
2018-09-27T11:35:50.443Z,32.57
2018-09-27T11:36:50.486Z,31.71
2018-09-27T11:37:50.525Z,31.41
2018-09-27T11:38:50.569Z,31.51
2018-09-27T11:39:50.603Z,32.37
2018-09-27T11:40:50.642Z,32.18
2018-09-27T11:41:50.684Z,31.82
2018-09-27T11:42:50.783Z,31.06
2018-09-27T11:43:50.804Z,29.42
2018-09-27T11:44:50.803Z,29.97
2018-09-27T11:45:50.853Z,30.47
2018-09-27T11:46:50.878Z,31.22
2018-09-27T11:47:50.919Z,31.16
2018-09-27T11:48:50.969Z,30.67
2018-09-27T11:49:51.058Z,30.49
2018-09-27T11:50:51.037Z,29.32
2018-09-27T11:51:51.074Z,29.42
2018-09-27T11:52:51.114Z,29.72
2018-09-27T11:53:51.200Z,29.24
2018-09-27T11:54:51.223Z,29.19
2018-09-27T11:55:51.235Z,29.29
2018-09-27T11:56:51.272Z,29.49
2018-09-27T11:57:51.312Z,29.79
2018-09-27T11:58:51.391Z,29.69
2018-09-27T11:59:51.389Z,29.99
2018-09-27T12:00:51.428Z,29.29
2018-09-27T12:01:51.469Z,30.44
2018-09-27T12:02:51.509Z,29.76
2018-09-27T12:03:51.547Z,29.55
2018-09-27T12:04:51.585Z,28.99
2018-09-27T12:05:51.631Z,28.61
2018-09-27T12:06:51.663Z,28.61
2018-09-27T12:07:51.703Z,28.33
2018-09-27T12:08:51.759Z,28.07
2018-09-27T12:09:51.798Z,27.06
2018-09-27T12:10:51.821Z,27.06
2018-09-27T12:11:51.892Z,26.84
2018-09-27T12:12:51.914Z,27.22
2018-09-27T12:13:51.938Z,27.54
2018-09-27T12:14:51.977Z,26.95
2018-09-27T12:15:52.015Z,27.04
2018-09-27T12:16:52.059Z,27.43
2018-09-27T12:17:52.103Z,26.26
2018-09-27T12:18:52.134Z,26.65
2018-09-27T12:19:52.212Z,26.69
2018-09-27T12:20:52.207Z,26.57
2018-09-27T12:21:52.245Z,26.10
2018-09-27T12:22:52.336Z,25.90
2018-09-27T12:23:52.325Z,25.30
2018-09-27T12:24:52.362Z,25.20
2018-09-27T12:25:52.403Z,25.31
2018-09-27T12:26:52.441Z,25.09
2018-09-27T12:27:52.477Z,25.80
2018-09-27T12:28:52.519Z,25.89
2018-09-27T12:29:52.555Z,26.07
2018-09-27T12:30:52.597Z,26.39
2018-09-27T12:31:52.632Z,25.41
2018-09-27T12:32:52.680Z,25.23
2018-09-27T12:33:52.715Z,25.34
2018-09-27T12:34:52.746Z,25.15
2018-09-27T12:35:52.783Z,23.80
2018-09-27T12:36:52.827Z,23.89
2018-09-27T12:37:52.862Z,23.99
2018-09-27T12:38:52.976Z,22.61
2018-09-27T12:39:52.936Z,22.41
2018-09-27T12:40:52.977Z,22.24
2018-09-27T12:41:53.088Z,22.03
2018-09-27T12:42:53.062Z,22.63
2018-09-27T12:43:53.106Z,22.35
2018-09-27T12:44:53.185Z,21.58
2018-09-27T12:45:53.248Z,21.67
2018-09-27T12:46:53.319Z,20.97
2018-09-27T12:47:53.247Z,21.06
2018-09-27T12:48:53.291Z,21.53
2018-09-27T12:49:53.323Z,21.70
2018-09-27T12:50:53.369Z,22.39
2018-09-27T12:51:53.557Z,21.51
2018-09-27T12:52:53.523Z,21.61
2018-09-27T12:53:53.479Z,21.81
2018-09-27T12:54:53.515Z,21.83
2018-09-27T12:55:53.575Z,20.96
2018-09-27T12:56:53.590Z,20.78
2018-09-27T12:57:53.630Z,20.86
2018-09-27T12:58:53.668Z,21.64
2018-09-27T12:59:53.704Z,21.64
2018-09-27T13:00:53.777Z,21.64
2018-09-27T13:01:53.868Z,21.55
2018-09-27T13:02:53.941Z,21.74
2018-09-27T13:03:53.864Z,21.64
2018-09-27T13:04:53.894Z,22.11
2018-09-27T13:05:53.934Z,21.83
2018-09-27T13:06:53.978Z,21.82
2018-09-27T13:07:54.008Z,21.53
2018-09-27T13:08:54.065Z,21.15
2018-09-27T13:09:54.239Z,21.15
2018-09-27T13:10:58.162Z,21.33
2018-09-27T13:11:54.170Z,21.64
2018-09-27T13:12:54.343Z,21.43
2018-09-27T13:13:54.234Z,21.14
2018-09-27T13:14:54.324Z,21.12
2018-09-27T13:15:54.313Z,21.51
2018-09-27T13:16:54.346Z,21.61
2018-09-27T13:17:54.387Z,21.61